createdAt,value
2019-02-28T00:01:16.169Z,16.60
2019-02-28T00:03:49.534Z,16.03
2019-02-28T00:06:22.994Z,18.07
2019-02-28T00:08:56.320Z,17.07
2019-02-28T00:11:29.627Z,13.17
2019-02-28T00:14:03.008Z,17.00
2019-02-28T00:16:36.427Z,13.60
2019-02-28T00:19:09.671Z,14.83
2019-02-28T00:21:43.057Z,14.23
2019-02-28T00:24:16.347Z,16.30
2019-02-28T00:26:49.719Z,18.20
2019-02-28T00:29:23.025Z,15.90
2019-02-28T00:31:56.302Z,15.60
2019-02-28T00:34:29.693Z,14.37
2019-02-28T00:37:02.918Z,15.00
2019-02-28T00:39:36.227Z,15.73
2019-02-28T00:42:09.597Z,17.40
2019-02-28T00:44:42.955Z,14.60
2019-02-28T00:47:17.085Z,17.23
2019-02-28T00:49:50.382Z,16.67
2019-02-28T00:52:23.690Z,15.80
2019-02-28T00:54:57.009Z,18.27
2019-02-28T00:57:30.307Z,19.40
2019-02-28T01:00:06.261Z,15.93
2019-02-28T01:02:39.646Z,15.50
2019-02-28T01:05:12.964Z,18.87
2019-02-28T01:07:48.160Z,16.47
2019-02-28T01:10:21.366Z,16.00
2019-02-28T01:12:54.692Z,18.07
2019-02-28T01:15:27.966Z,18.90
2019-02-28T01:18:02.026Z,23.30
2019-02-28T01:20:35.346Z,15.50
2019-02-28T01:23:08.717Z,20.73
2019-02-28T01:25:42.013Z,19.03
2019-02-28T01:28:15.321Z,15.47
2019-02-28T01:30:48.616Z,14.97
2019-02-28T01:33:24.856Z,19.43
2019-02-28T01:35:56.950Z,17.57
2019-02-28T01:38:30.238Z,14.30
2019-02-28T01:41:03.520Z,14.93
2019-02-28T01:43:36.807Z,13.13
2019-02-28T01:46:10.121Z,14.60
2019-02-28T01:48:43.403Z,15.40
2019-02-28T01:51:16.749Z,17.07
2019-02-28T01:53:50.475Z,15.40
2019-02-28T01:56:25.073Z,16.20
2019-02-28T01:58:58.358Z,19.53
2019-02-28T02:01:31.749Z,16.10
2019-02-28T02:04:05.007Z,14.43
2019-02-28T02:06:38.333Z,17.20
2019-02-28T02:09:11.891Z,18.33
2019-02-28T02:11:45.225Z,15.10
2019-02-28T02:14:18.551Z,21.87
2019-02-28T02:16:51.861Z,22.50
2019-02-28T02:19:25.161Z,15.10
2019-02-28T02:21:58.458Z,17.93
2019-02-28T02:24:31.776Z,17.67
2019-02-28T02:27:05.117Z,14.93
2019-02-28T02:29:38.463Z,18.07
2019-02-28T02:32:12.213Z,16.50
2019-02-28T02:34:45.522Z,15.77
2019-02-28T02:37:18.817Z,18.37
2019-02-28T02:39:52.155Z,18.23
2019-02-28T02:42:25.448Z,20.47
2019-02-28T02:44:58.830Z,19.47
2019-02-28T02:47:32.618Z,19.47
2019-02-28T02:50:09.171Z,17.70
2019-02-28T02:52:42.609Z,23.73
2019-02-28T02:55:15.908Z,18.20
2019-02-28T02:57:51.783Z,19.30
2019-02-28T03:00:24.304Z,17.10
2019-02-28T03:02:59.233Z,15.10
2019-02-28T03:05:35.953Z,16.70
2019-02-28T03:08:09.197Z,20.23
2019-02-28T03:10:42.505Z,15.67
2019-02-28T03:13:15.867Z,20.23
2019-02-28T03:15:49.172Z,24.33
2019-02-28T03:18:22.476Z,24.80
2019-02-28T03:20:55.780Z,19.30
2019-02-28T03:23:29.099Z,22.97
2019-02-28T03:26:06.979Z,20.93
2019-02-28T03:28:37.411Z,31.27
2019-02-28T03:31:14.108Z,22.63
2019-02-28T03:33:45.731Z,23.73
2019-02-28T03:36:19.044Z,23.37
2019-02-28T03:38:52.373Z,24.93
2019-02-28T03:41:25.724Z,22.63
2019-02-28T03:43:59.011Z,19.00
2019-02-28T03:46:32.327Z,18.23
2019-02-28T03:49:11.160Z,19.60
2019-02-28T03:51:40.698Z,21.10
2019-02-28T03:54:13.950Z,20.93
2019-02-28T03:56:51.656Z,20.10
2019-02-28T03:59:22.287Z,23.73
2019-02-28T04:01:55.622Z,25.33
2019-02-28T04:04:28.927Z,29.63
2019-02-28T04:07:02.240Z,20.90
2019-02-28T04:09:35.542Z,25.20
2019-02-28T04:12:09.142Z,22.43
2019-02-28T04:14:42.526Z,22.77
2019-02-28T04:17:15.844Z,22.63
2019-02-28T04:19:49.142Z,21.53
2019-02-28T04:22:23.107Z,21.77
2019-02-28T04:24:57.296Z,19.27
2019-02-28T04:27:30.613Z,23.83
2019-02-28T04:30:08.011Z,29.27
2019-02-28T04:32:40.209Z,24.93
2019-02-28T04:35:13.576Z,22.73
2019-02-28T04:37:47.333Z,22.97
2019-02-28T04:40:20.770Z,23.43
2019-02-28T04:42:54.121Z,21.47
2019-02-28T04:45:27.414Z,23.90
2019-02-28T04:48:00.748Z,23.17
2019-02-28T04:50:34.047Z,21.23
2019-02-28T04:53:07.380Z,28.87
2019-02-28T04:55:40.685Z,25.43
2019-02-28T04:58:14.015Z,27.47
2019-02-28T05:00:47.294Z,23.43
2019-02-28T05:03:20.601Z,28.23
2019-02-28T05:05:53.895Z,26.37
2019-02-28T05:08:27.228Z,25.13
2019-02-28T05:11:00.534Z,24.33
2019-02-28T05:13:33.843Z,24.40
2019-02-28T05:16:09.405Z,24.93
2019-02-28T05:18:42.264Z,30.33
2019-02-28T05:21:16.549Z,28.37
2019-02-28T05:23:50.649Z,30.00
2019-02-28T05:26:26.225Z,29.70
2019-02-28T05:28:59.025Z,27.70
2019-02-28T05:31:32.378Z,26.50
2019-02-28T05:34:05.737Z,26.70
2019-02-28T05:36:39.044Z,26.97
2019-02-28T05:39:12.394Z,25.53
2019-02-28T05:41:49.167Z,24.03
2019-02-28T05:44:21.423Z,20.63
2019-02-28T05:46:57.590Z,26.00
2019-02-28T05:49:29.855Z,22.53
2019-02-28T05:52:03.228Z,26.73
2019-02-28T05:54:36.522Z,26.50
2019-02-28T05:57:09.850Z,30.17
2019-02-28T05:59:43.157Z,25.03
2019-02-28T06:02:18.930Z,25.93
2019-02-28T06:04:51.508Z,25.97
2019-02-28T06:07:25.988Z,26.77
2019-02-28T06:09:59.881Z,25.27
2019-02-28T06:12:33.174Z,32.70
2019-02-28T06:15:09.846Z,27.83
2019-02-28T06:17:43.212Z,31.67
2019-02-28T06:20:17.960Z,26.70
2019-02-28T06:22:51.360Z,31.13
2019-02-28T06:25:25.693Z,25.93
2019-02-28T06:27:59.053Z,27.57
2019-02-28T06:30:32.397Z,26.93
2019-02-28T06:33:05.703Z,30.30
2019-02-28T06:35:39.305Z,24.50
2019-02-28T06:38:12.556Z,30.00
2019-02-28T06:40:45.870Z,30.03
2019-02-28T06:43:19.591Z,25.30
2019-02-28T06:45:53.066Z,26.17
2019-02-28T06:48:26.737Z,29.07
2019-02-28T06:51:00.301Z,27.43
2019-02-28T06:53:36.305Z,27.87
2019-02-28T06:56:09.656Z,23.60
2019-02-28T06:58:42.961Z,26.40
2019-02-28T07:01:19.255Z,25.13
2019-02-28T07:03:53.690Z,26.13
2019-02-28T07:06:26.575Z,23.47
2019-02-28T07:09:02.375Z,24.57
2019-02-28T07:11:34.864Z,28.07
2019-02-28T07:14:12.929Z,26.40
2019-02-28T07:16:43.311Z,21.87
2019-02-28T07:19:16.973Z,28.63
2019-02-28T07:21:50.302Z,33.20
2019-02-28T07:24:23.682Z,30.47
2019-02-28T07:26:57.009Z,29.23
2019-02-28T07:29:32.061Z,27.37
2019-02-28T07:32:05.656Z,24.43
2019-02-28T07:34:38.994Z,42.20
2019-02-28T07:37:12.448Z,28.17
2019-02-28T07:39:45.797Z,30.67
2019-02-28T07:42:19.169Z,28.73
2019-02-28T07:44:53.677Z,25.27
2019-02-28T07:47:27.547Z,21.40
2019-02-28T07:50:00.999Z,27.80
2019-02-28T07:52:34.502Z,24.17
2019-02-28T07:55:11.106Z,22.73
2019-02-28T07:57:53.301Z,26.33
2019-02-28T08:00:26.315Z,22.37
2019-02-28T08:02:59.689Z,23.53
2019-02-28T08:05:33.075Z,23.27
2019-02-28T08:08:07.794Z,22.40
2019-02-28T08:10:41.063Z,21.90
2019-02-28T08:13:14.336Z,20.33
2019-02-28T08:15:47.711Z,19.93
2019-02-28T08:18:21.832Z,21.33
2019-02-28T08:20:55.180Z,21.20
2019-02-28T08:23:29.947Z,20.93
2019-02-28T08:26:03.538Z,24.27
2019-02-28T08:28:37.093Z,20.60
2019-02-28T08:31:10.964Z,22.83
2019-02-28T08:33:44.256Z,22.47
2019-02-28T08:36:17.651Z,27.03
2019-02-28T08:38:51.240Z,21.10
2019-02-28T08:41:25.726Z,28.40
2019-02-28T08:43:59.833Z,25.73
2019-02-28T08:46:33.237Z,27.53
2019-02-28T08:49:07.404Z,26.03
2019-02-28T08:51:40.740Z,26.50
2019-02-28T08:54:14.062Z,27.53
2019-02-28T08:56:49.526Z,23.63
2019-02-28T08:59:22.948Z,23.30
2019-02-28T09:01:56.295Z,23.07
2019-02-28T09:04:29.675Z,25.43
2019-02-28T09:07:02.946Z,25.13
2019-02-28T09:09:36.280Z,25.37
2019-02-28T09:12:09.701Z,27.20
2019-02-28T09:14:43.159Z,26.30
2019-02-28T09:17:18.551Z,22.43
2019-02-28T09:19:51.709Z,26.23
2019-02-28T09:22:27.339Z,25.37
2019-02-28T09:25:00.283Z,28.90
2019-02-28T09:27:38.452Z,27.20
2019-02-28T09:30:17.621Z,34.20
2019-02-28T09:32:50.955Z,29.90
2019-02-28T09:35:24.362Z,30.23
2019-02-28T09:37:57.754Z,30.40
2019-02-28T09:40:31.259Z,30.53
2019-02-28T09:43:04.887Z,31.30
2019-02-28T09:45:40.021Z,35.60
2019-02-28T09:48:13.464Z,32.13
2019-02-28T09:50:46.846Z,29.03
2019-02-28T09:53:20.277Z,32.40
2019-02-28T09:55:53.840Z,32.40
2019-02-28T09:58:29.321Z,35.83
2019-02-28T10:01:02.395Z,34.00
2019-02-28T10:03:36.066Z,33.13
2019-02-28T10:06:09.570Z,32.87
2019-02-28T10:08:43.088Z,34.37
2019-02-28T10:11:16.662Z,36.50
2019-02-28T10:13:53.152Z,35.30
2019-02-28T10:16:25.380Z,35.03
2019-02-28T10:18:58.836Z,32.03
2019-02-28T10:21:33.281Z,34.17
2019-02-28T10:24:07.289Z,37.03
2019-02-28T10:26:40.673Z,32.20
2019-02-28T10:29:14.076Z,30.57
2019-02-28T10:31:47.436Z,33.00
2019-02-28T10:34:23.512Z,34.70
2019-02-28T10:36:55.849Z,34.87
2019-02-28T10:39:29.368Z,32.03
2019-02-28T10:42:05.225Z,29.80
2019-02-28T10:44:37.959Z,32.47
2019-02-28T10:47:11.271Z,30.60
2019-02-28T10:49:44.634Z,30.23
2019-02-28T10:52:18.109Z,34.40
2019-02-28T10:54:51.385Z,29.47
2019-02-28T10:57:24.779Z,31.67
2019-02-28T10:59:59.162Z,28.47
2019-02-28T11:02:32.593Z,36.40
2019-02-28T11:05:07.955Z,30.60
2019-02-28T11:07:41.463Z,32.93
2019-02-28T11:10:15.777Z,30.40
2019-02-28T11:12:49.178Z,31.67
2019-02-28T11:15:24.590Z,32.10
2019-02-28T11:17:57.963Z,31.57
2019-02-28T11:20:33.173Z,30.47
2019-02-28T11:23:07.745Z,30.27
2019-02-28T11:25:41.350Z,33.27
2019-02-28T11:28:15.034Z,31.83
2019-02-28T11:30:54.353Z,31.13
2019-02-28T11:33:27.686Z,31.37
2019-02-28T11:36:01.255Z,30.03
2019-02-28T11:38:34.694Z,29.67
2019-02-28T11:41:08.059Z,30.57
2019-02-28T11:43:41.491Z,28.57
2019-02-28T11:46:15.169Z,28.50
2019-02-28T11:48:51.020Z,27.13
2019-02-28T11:51:23.517Z,28.40
2019-02-28T11:53:56.941Z,30.57
2019-02-28T11:56:30.239Z,27.93
2019-02-28T11:59:03.670Z,27.30
2019-02-28T12:01:37.062Z,34.90
2019-02-28T12:04:10.562Z,20.07
2019-02-28T12:06:43.853Z,24.50
2019-02-28T12:09:19.237Z,22.87
2019-02-28T12:11:52.737Z,20.03
2019-02-28T12:14:26.413Z,31.13
2019-02-28T12:17:01.137Z,20.33
2019-02-28T12:19:34.523Z,23.77
2019-02-28T12:22:09.228Z,22.53
2019-02-28T12:24:43.055Z,23.73
2019-02-28T12:27:18.270Z,22.40
2019-02-28T12:29:51.648Z,23.07
2019-02-28T12:32:24.955Z,24.47
2019-02-28T12:35:01.485Z,23.47
2019-02-28T12:37:34.424Z,19.70
2019-02-28T12:40:11.200Z,20.37
2019-02-28T12:42:44.420Z,20.83
2019-02-28T12:45:24.510Z,19.47
2019-02-28T12:47:58.703Z,19.57
2019-02-28T12:50:32.088Z,19.87
2019-02-28T12:53:05.577Z,17.73
2019-02-28T12:55:40.132Z,20.60
2019-02-28T12:58:13.668Z,16.53
2019-02-28T13:00:47.213Z,18.17
2019-02-28T13:03:21.204Z,19.80
2019-02-28T13:05:54.809Z,19.50
2019-02-28T13:08:28.275Z,17.37
2019-02-28T13:11:04.521Z,20.23
2019-02-28T13:13:37.034Z,18.00
2019-02-28T13:16:10.432Z,17.90
2019-02-28T13:18:44.454Z,19.40
2019-02-28T13:21:17.798Z,18.93
2019-02-28T13:23:51.154Z,17.60
2019-02-28T13:26:24.541Z,18.47
2019-02-28T13:28:58.159Z,20.53
2019-02-28T13:31:31.621Z,19.80
2019-02-28T13:34:04.997Z,23.83
2019-02-28T13:36:38.423Z,23.37
2019-02-28T13:39:11.902Z,20.83
2019-02-28T13:41:48.228Z,22.10
2019-02-28T13:44:21.680Z,21.70
2019-02-28T13:46:55.041Z,25.83
2019-02-28T13:49:28.405Z,22.23
2019-02-28T13:52:01.719Z,22.93
2019-02-28T13:54:38.149Z,22.90
2019-02-28T13:57:10.285Z,19.83
2019-02-28T13:59:43.713Z,21.07
2019-02-28T14:02:17.017Z,22.23
2019-02-28T14:04:50.350Z,22.33
2019-02-28T14:07:25.924Z,24.87
2019-02-28T14:09:58.873Z,19.87
2019-02-28T14:12:32.389Z,25.00
2019-02-28T14:15:08.899Z,15.93
2019-02-28T14:17:42.201Z,24.40
2019-02-28T14:20:15.528Z,26.43
2019-02-28T14:22:48.876Z,24.23
2019-02-28T14:25:23.686Z,24.53
2019-02-28T14:28:00.309Z,20.50
2019-02-28T14:30:33.340Z,21.27
2019-02-28T14:33:06.870Z,26.43
2019-02-28T14:35:40.354Z,24.30
2019-02-28T14:38:13.682Z,26.43
2019-02-28T14:40:49.553Z,25.97
2019-02-28T14:43:22.193Z,24.30
2019-02-28T14:45:55.592Z,23.67
2019-02-28T14:48:28.889Z,21.63
2019-02-28T14:51:02.452Z,25.73
2019-02-28T14:53:35.691Z,23.87
2019-02-28T14:56:09.310Z,19.40
2019-02-28T14:58:42.619Z,21.57
2019-02-28T15:01:18.023Z,22.60
2019-02-28T15:03:51.274Z,22.00
2019-02-28T15:06:26.430Z,22.93
2019-02-28T15:08:59.815Z,20.30
2019-02-28T15:11:33.312Z,22.10
2019-02-28T15:14:08.773Z,23.07
2019-02-28T15:16:41.819Z,23.03
2019-02-28T15:19:15.211Z,18.13
2019-02-28T15:21:48.529Z,22.70
2019-02-28T15:24:21.914Z,28.70
2019-02-28T15:26:55.412Z,21.57
2019-02-28T15:29:28.795Z,14.87
2019-02-28T15:32:02.135Z,17.53
2019-02-28T15:34:37.469Z,19.57
2019-02-28T15:37:10.639Z,20.10
2019-02-28T15:39:44.029Z,20.27
2019-02-28T15:42:17.507Z,21.70
2019-02-28T15:44:50.877Z,17.03
2019-02-28T15:47:24.587Z,19.20
2019-02-28T15:49:57.835Z,15.80
2019-02-28T15:52:31.256Z,16.20
2019-02-28T15:55:05.512Z,15.13
2019-02-28T15:57:38.931Z,18.30
2019-02-28T16:00:29.701Z,15.17
2019-02-28T16:03:03.165Z,20.53
2019-02-28T16:05:42.425Z,18.70
2019-02-28T16:08:11.856Z,18.43
2019-02-28T16:10:52.853Z,18.30
2019-02-28T16:13:22.670Z,20.97
2019-02-28T16:15:55.295Z,23.67
2019-02-28T16:18:28.783Z,21.43
2019-02-28T16:21:03.659Z,21.63
2019-02-28T16:23:37.158Z,22.20
2019-02-28T16:26:10.565Z,19.37
2019-02-28T16:28:43.962Z,19.83
2019-02-28T16:31:18.742Z,21.30
2019-02-28T16:33:52.300Z,19.63
2019-02-28T16:36:26.568Z,25.33
2019-02-28T16:39:00.139Z,22.17
2019-02-28T16:41:33.680Z,16.10
2019-02-28T16:44:08.592Z,22.00
2019-02-28T16:46:41.959Z,23.97
2019-02-28T16:49:15.358Z,18.60
2019-02-28T16:51:48.770Z,20.83
2019-02-28T16:54:22.750Z,13.47
2019-02-28T16:56:56.678Z,13.80
2019-02-28T16:59:31.733Z,13.03
2019-02-28T17:02:05.138Z,9.60
2019-02-28T17:04:38.490Z,10.07
2019-02-28T17:07:11.782Z,7.50
2019-02-28T17:09:46.700Z,13.60
2019-02-28T17:12:27.262Z,9.67
2019-02-28T17:14:59.612Z,9.93
2019-02-28T17:17:34.561Z,6.70
2019-02-28T17:20:07.948Z,9.67
2019-02-28T17:22:41.246Z,11.07
2019-02-28T17:25:14.568Z,8.67
2019-02-28T17:34:15.630Z,8.97
2019-02-28T17:36:49.051Z,11.17
2019-02-28T17:39:22.428Z,9.63
2019-02-28T17:41:55.892Z,10.10
2019-02-28T17:44:33.981Z,11.13
2019-02-28T17:47:10.414Z,12.93
2019-02-28T17:50:15.817Z,9.60
2019-02-28T17:53:21.208Z,13.80
2019-02-28T17:56:12.804Z,12.53
2019-02-28T17:59:21.219Z,11.87
2019-02-28T18:02:09.313Z,13.03
2019-02-28T18:05:11.599Z,13.83
2019-02-28T18:08:00.524Z,18.50
2019-02-28T18:10:40.938Z,13.63
2019-02-28T18:13:26.419Z,14.40
2019-02-28T18:16:24.216Z,14.73
2019-02-28T18:19:33.115Z,14.57
2019-02-28T18:22:16.078Z,13.90
2019-02-28T18:25:07.614Z,12.30
2019-02-28T18:27:58.926Z,11.90
2019-02-28T18:30:38.333Z,14.03
2019-02-28T18:33:11.619Z,11.53
2019-02-28T18:35:44.994Z,11.17
2019-02-28T18:38:18.486Z,15.07
2019-02-28T18:40:51.830Z,14.37
2019-02-28T18:43:27.005Z,11.63
2019-02-28T18:46:00.140Z,13.77
2019-02-28T18:48:33.442Z,11.30
2019-02-28T18:51:06.756Z,10.53
2019-02-28T18:53:40.037Z,14.33
2019-02-28T18:56:13.365Z,15.33
2019-02-28T18:58:46.638Z,13.07
2019-02-28T19:01:20.032Z,9.57
2019-02-28T19:03:53.336Z,12.63
2019-02-28T19:06:26.645Z,11.20
2019-02-28T19:08:59.999Z,15.17
2019-02-28T19:11:33.312Z,12.27
2019-02-28T19:14:06.620Z,15.50
2019-02-28T19:16:39.958Z,14.77
2019-02-28T19:19:13.306Z,12.47
2019-02-28T19:24:48.237Z,12.60
2019-02-28T19:27:21.544Z,15.43
2019-02-28T19:29:55.070Z,11.80
2019-02-28T19:32:28.386Z,17.13
2019-02-28T19:35:01.665Z,12.83
2019-02-28T19:37:35.005Z,13.47
2019-02-28T19:40:10.712Z,16.03
2019-02-28T19:42:44.035Z,13.43
2019-02-28T19:45:20.505Z,13.93
2019-02-28T19:47:53.829Z,16.93
2019-02-28T19:50:27.123Z,15.40
2019-02-28T19:53:00.508Z,14.63
2019-02-28T19:55:33.871Z,13.63
2019-02-28T19:58:07.213Z,17.13
2019-02-28T20:00:40.503Z,14.23
2019-02-28T20:03:13.935Z,19.90
2019-02-28T20:05:47.213Z,16.83
2019-02-28T20:08:20.545Z,15.70
2019-02-28T20:10:53.894Z,16.27
2019-02-28T20:13:27.198Z,16.77
2019-02-28T20:16:00.484Z,17.27
2019-02-28T20:18:33.797Z,17.40
2019-02-28T20:21:07.336Z,16.27
2019-02-28T20:23:40.668Z,14.93
2019-02-28T20:26:14.053Z,14.33
2019-02-28T20:28:47.356Z,18.43
2019-02-28T20:31:20.914Z,13.13
2019-02-28T20:33:54.243Z,15.13
2019-02-28T20:36:27.559Z,16.30
2019-02-28T20:39:00.892Z,15.47
2019-02-28T20:41:34.192Z,13.57
2019-02-28T20:44:07.583Z,17.67
2019-02-28T20:46:40.882Z,15.57
2019-02-28T20:49:14.341Z,14.67
2019-02-28T20:51:54.805Z,15.30
2019-02-28T20:54:22.694Z,13.97
2019-02-28T20:56:55.981Z,15.17
2019-02-28T20:59:29.274Z,12.90
2019-02-28T21:02:02.584Z,13.30
2019-02-28T21:04:36.357Z,12.63
2019-02-28T21:07:09.798Z,12.87
2019-02-28T21:09:45.154Z,13.03
2019-02-28T21:12:18.332Z,12.93
2019-02-28T21:14:51.648Z,9.93
2019-02-28T21:17:29.375Z,14.30
2019-02-28T21:20:00.091Z,12.03
2019-02-28T21:22:33.442Z,11.77
2019-02-28T21:25:09.791Z,9.93
2019-02-28T21:27:43.099Z,13.47
2019-02-28T21:30:19.577Z,12.07
2019-02-28T21:32:52.892Z,13.93
2019-02-28T21:35:26.529Z,14.53
2019-02-28T21:38:00.092Z,14.20
2019-02-28T21:40:33.487Z,16.27
2019-02-28T21:43:06.777Z,14.10
2019-02-28T21:45:40.090Z,11.90
2019-02-28T21:48:13.457Z,17.10
2019-02-28T21:50:46.738Z,9.43
2019-02-28T21:53:20.037Z,14.50
2019-02-28T21:55:53.344Z,12.70
2019-02-28T21:58:26.821Z,12.87
2019-02-28T22:01:00.203Z,10.17
2019-02-28T22:03:33.508Z,11.90
2019-02-28T22:06:06.869Z,12.00
2019-02-28T22:08:40.193Z,15.77
2019-02-28T22:11:13.597Z,12.13
2019-02-28T22:13:46.933Z,11.23
2019-02-28T22:16:20.184Z,9.70
2019-02-28T22:18:53.473Z,9.50
2019-02-28T22:21:26.751Z,10.40
2019-02-28T22:24:01.707Z,9.63
2019-02-28T22:26:34.996Z,10.37
2019-02-28T22:29:08.285Z,9.37
2019-02-28T22:31:46.154Z,9.70
2019-02-28T22:34:24.039Z,18.63
2019-02-28T22:36:57.337Z,13.70
2019-02-28T22:39:30.651Z,14.50
2019-02-28T22:42:03.953Z,8.77
2019-02-28T22:44:37.238Z,13.00
2019-02-28T22:47:10.524Z,8.07
2019-02-28T22:49:43.835Z,11.23
2019-02-28T22:52:17.110Z,10.50
2019-02-28T22:54:50.406Z,8.20
2019-02-28T22:57:23.703Z,12.17
2019-02-28T22:59:56.993Z,10.93
2019-02-28T23:02:30.941Z,13.87
2019-02-28T23:05:05.388Z,8.03
2019-02-28T23:07:38.677Z,15.90
2019-02-28T23:10:11.982Z,12.27
2019-02-28T23:12:45.253Z,13.53
2019-02-28T23:15:18.558Z,13.53
2019-02-28T23:17:51.836Z,11.43
2019-02-28T23:20:25.130Z,10.83
2019-02-28T23:22:58.432Z,12.37
2019-02-28T23:25:31.712Z,11.77
2019-02-28T23:28:13.355Z,13.53
2019-02-28T23:31:10.884Z,16.33
2019-02-28T23:33:44.156Z,11.20
2019-02-28T23:36:17.449Z,17.20
2019-02-28T23:38:50.913Z,11.90
2019-02-28T23:41:24.204Z,20.73
2019-02-28T23:43:57.483Z,10.97
2019-02-28T23:46:30.786Z,14.37
2019-02-28T23:49:04.080Z,17.63
2019-02-28T23:51:37.389Z,18.10
2019-02-28T23:54:10.884Z,15.70
2019-02-28T23:56:44.232Z,11.87
2019-02-28T23:59:17.565Z,15.33
